F
Current Radar or Satellite Image

Flhurricane.com - Central Florida Hurricane Center - Tracking Storms since 1995Hurricanes Without the Hype! Since 1995


Western Gulf and NW Caribbean increasingly favored for development potential over the next week or so.
Days since last H. Landfall - US: Any 290 (Idalia) , Major: 290 (Idalia) Florida - Any: 290 (Idalia) Major: 290 (Idalia)
 


News Talkback >> 2004 News Talkbacks

Pages: 1 | 2 | 3 | 4 | 5 | 6 | 7 | 8 | 9 | 10 | 11 | 12 | 13 | 14 | (show all)
danielwAdministrator
Moderator


Reged:
Posts: 3525
Loc: Hattiesburg,MS (31.3N 89.3W)
Re: Recon is Airborne [Re: danielw]
      #18847 - Wed Aug 11 2004 06:33 AM

Recon airborne at 0559Z headed to Bonnie.
URNT11 KNHC 110559
97779 05594 41272 9020/ 14800 10011 1814/ /2538
RMK AF977 0702A BONNIE OB 01
27.2N 90.2W
14800-appears they are flying this part of the mission at 1500 ft or so.
10011-winds from 100degrees ESE at 11kts


Edited by danielw (Wed Aug 11 2004 06:39 AM)


Post Extras: Print Post   Remind Me!   Notify Moderator  
danielwAdministrator
Moderator


Reged:
Posts: 3525
Loc: Hattiesburg,MS (31.3N 89.3W)
Re: Jamaica Weather 06Z [Re: danielw]
      #18848 - Wed Aug 11 2004 06:55 AM

MKJP 110700Z 36016KT 9999 FEW022CB SCT200 30/23 Q1012
MKJP 110600Z 35013KT 9999 FEW022CB 29/22 Q1012
MKJP 110500Z 28007KT 9999 FEW022CB 29/23 Q1014
MKJP 110400Z 33005KT 9999 FEW022 29/23 Q1014
MKJP 110300Z 34005KT 9999 FEW022 30/23 Q1014


Edited by danielw (Wed Aug 11 2004 07:18 AM)


Post Extras: Print Post   Remind Me!   Notify Moderator  
danielwAdministrator
Moderator


Reged:
Posts: 3525
Loc: Hattiesburg,MS (31.3N 89.3W)
Re: Recon is Airborne [Re: danielw]
      #18849 - Wed Aug 11 2004 07:02 AM

URNT12 KNHC 110632
VORTEX DATA MESSAGE
A. 11/0632Z
B. 25 DEG 13 MIN N
90 DEG 42 MIN W
C. 850 MB 1466 M-flight level of 4808ft
D. NA
E. NA
F. 099 DEG 32 KT
G. 003 DEG 9 NM
H. 1004 MB-no change from 6 hrs ago
I. 18 C/ 1498 M- air temp outside the ctr 1C cooler
J. 22 C/ 1496 M-air temp inside the ctr 2C cooler
K. 20 C/ NA-dew point in the ctr 3C warmer than last vortex
L. NA
M. NA
N. 12345/8
O. 0.1/ 2 NM
P. AF977 0702A BONNIE OB 02
MAX FL WIND 32 KT N QUAD 0630Z.

the notes refer to the last recon fix at 10/2304Z

Edited by danielw (Wed Aug 11 2004 07:29 AM)


Post Extras: Print Post   Remind Me!   Notify Moderator  
Pages: 1 | 2 | 3 | 4 | 5 | 6 | 7 | 8 | 9 | 10 | 11 | 12 | 13 | 14 | (show all)



Extra information
0 registered and 190 anonymous users are browsing this forum.

Moderator:  

Print Topic

Forum Permissions
      You cannot start new topics
      You cannot reply to topics
      HTML is disabled
      UBBCode is enabled

Rating: *****
Topic views: 70751

Rate this topic

Jump to

Note: This is NOT an official page. It is run by weather hobbyists and should not be used as a replacement for official sources. 
CFHC's main servers are currently located at
Hostdime.com in Orlando, FL.
Image Server Network thanks to Mike Potts and Amazon Web Services. If you have static file hosting space that allows dns aliasing contact us to help out! Some Maps Provided by:
Great thanks to all who donated and everyone who uses the site as well. Site designed for 800x600+ resolution
When in doubt, take the word of the National Hurricane Center